Time;durP1;ratioP1;P1;durP2;ratioP2;P2;SDS_P1;SDS_P2;PMS_P1;PMS_P2;Temp;Humidity;BMP_temperature;BMP_pressure;BME280_temperature;BME280_humidity;BME280_pressure;Samples;Min_cycle;Max_cycle;Signal;HPM_P1;HPM_P2
2022/02/12 00:00:48;;;;;;;9.30;6.37;;;;;;;3.02;80.36;99605.07;1704151;82;21737;-58
2022/02/12 00:03:15;;;;;;;8.13;6.37;;;;;;;3.06;80.36;99613.00;1704446;82;21176;-58
2022/02/12 00:05:42;;;;;;;11.63;6.80;;;;;;;3.07;80.47;99601.42;1703873;82;21670;-58
2022/02/12 00:08:08;;;;;;;9.93;7.33;;;;;;;3.10;80.52;99612.02;1701513;82;21152;-59
2022/02/12 00:10:35;;;;;;;10.07;7.57;;;;;;;3.11;80.55;99604.45;1702118;82;21057;-58
2022/02/12 00:13:10;;;;;;;10.37;7.47;;;;;;;3.12;80.60;99604.89;1702447;82;21157;-58
2022/02/12 00:15:35;;;;;;;13.80;8.87;;;;;;;3.13;80.60;99600.88;1679102;81;21024;-58
2022/02/12 00:18:03;;;;;;;9.80;8.30;;;;;;;3.15;80.60;99594.20;1706544;82;21021;-58
2022/02/12 00:20:30;;;;;;;11.33;8.97;;;;;;;3.14;80.54;99593.32;1706107;81;20915;-58
2022/02/12 00:22:56;;;;;;;15.27;9.77;;;;;;;3.15;80.56;99591.05;1706947;82;20944;-58
2022/02/12 00:25:23;;;;;;;15.67;9.30;;;;;;;3.14;80.54;99576.48;1707214;82;21420;-58
2022/02/12 00:27:49;;;;;;;19.97;11.13;;;;;;;3.14;80.48;99570.71;1704214;82;21508;-58
2022/02/12 00:30:15;;;;;;;13.50;8.93;;;;;;;3.13;80.34;99578.27;1708096;82;20998;-58
2022/02/12 00:32:43;;;;;;;14.83;8.23;;;;;;;3.06;80.46;99572.66;1703998;82;21352;-58
2022/02/12 00:35:09;;;;;;;10.77;8.03;;;;;;;3.03;80.55;99573.59;1705007;82;21468;-58
2022/02/12 00:37:35;;;;;;;12.73;9.07;;;;;;;2.96;80.62;99565.32;1708403;82;21602;-58
2022/02/12 00:40:02;;;;;;;18.10;12.83;;;;;;;2.94;80.80;99561.81;1706564;82;20930;-58
2022/02/12 00:42:28;;;;;;;14.43;10.87;;;;;;;2.91;80.94;99560.98;1706768;82;21513;-58
2022/02/12 00:44:55;;;;;;;15.80;11.03;;;;;;;2.83;81.06;99558.94;1705706;82;21531;-58
2022/02/12 00:47:21;;;;;;;17.07;11.20;;;;;;;2.75;81.29;99552.45;1725189;81;20959;-58
2022/02/12 00:49:48;;;;;;;13.37;9.80;;;;;;;2.68;81.38;99554.80;1726291;81;21553;-58
2022/02/12 00:52:14;;;;;;;15.50;10.67;;;;;;;2.62;81.61;99547.84;1728116;81;21326;-58
2022/02/12 00:54:40;;;;;;;23.63;13.37;;;;;;;2.66;81.80;99552.63;1730616;81;21022;-57
2022/02/12 00:57:07;;;;;;;17.03;11.53;;;;;;;2.69;81.91;99545.05;1729879;81;20973;-58
2022/02/12 00:59:34;;;;;;;21.70;12.83;;;;;;;2.72;81.95;99546.34;1730111;81;20918;-58
2022/02/12 01:02:01;;;;;;;16.47;10.23;;;;;;;2.75;81.93;99536.95;1730739;81;22165;-63
2022/02/12 01:04:28;;;;;;;10.43;7.77;;;;;;;2.74;81.94;99545.38;1728193;81;20954;-59
2022/02/12 01:06:55;;;;;;;10.77;8.43;;;;;;;2.74;81.99;99541.39;1726797;81;20942;-59
2022/02/12 01:09:22;;;;;;;9.87;7.57;;;;;;;2.75;82.05;99538.28;1727851;81;20942;-59
2022/02/12 01:11:49;;;;;;;10.57;7.70;;;;;;;2.76;82.11;99540.03;1730438;81;20965;-59
2022/02/12 01:14:16;;;;;;;10.63;7.83;;;;;;;2.76;82.17;99536.92;1728960;81;21878;-59
2022/02/12 01:16:43;;;;;;;11.03;7.43;;;;;;;2.78;82.14;99533.79;1728451;81;21054;-59
2022/02/12 01:19:09;;;;;;;8.17;6.20;;;;;;;2.79;82.09;99537.33;1727353;81;21117;-59
2022/02/12 01:21:35;;;;;;;11.33;6.73;;;;;;;2.79;81.96;99538.66;1656690;84;21057;-60
2022/02/12 01:24:02;;;;;;;10.40;7.10;;;;;;;2.77;81.90;99536.02;1726087;81;21022;-59
2022/02/12 01:26:29;;;;;;;6.43;5.00;;;;;;;2.76;81.95;99539.58;1723364;81;21114;-59
2022/02/12 01:28:55;;;;;;;12.70;8.77;;;;;;;2.75;81.98;99533.84;1659862;84;21014;-59
2022/02/12 01:31:22;;;;;;;13.33;9.13;;;;;;;2.77;82.05;99532.48;1678260;83;21369;-58
2022/02/12 01:33:48;;;;;;;12.90;9.77;;;;;;;2.81;82.05;99531.50;1679089;83;20954;-58
2022/02/12 01:36:14;;;;;;;20.00;12.50;;;;;;;2.81;81.96;99532.83;1728750;81;21406;-59
2022/02/12 01:38:41;;;;;;;18.97;11.80;;;;;;;2.82;81.93;99527.94;1725807;81;21794;-59
2022/02/12 01:41:07;;;;;;;16.63;12.00;;;;;;;2.82;81.82;99521.30;1727876;81;21360;-58
2022/02/12 01:43:34;;;;;;;16.50;11.73;;;;;;;2.80;81.72;99526.67;1727210;81;21077;-58
2022/02/12 01:46:00;;;;;;;16.97;12.47;;;;;;;2.78;81.64;99519.63;1729781;81;21132;-58
2022/02/12 01:48:27;;;;;;;14.57;11.03;;;;;;;2.75;81.56;99517.02;1718736;81;21092;-58
2022/02/12 01:50:54;;;;;;;11.83;10.13;;;;;;;2.73;81.50;99520.16;1723849;81;21788;-58
2022/02/12 01:53:22;;;;;;;13.87;11.23;;;;;;;2.69;81.49;99514.04;1718397;81;21002;-58
2022/02/12 01:55:49;;;;;;;15.13;10.87;;;;;;;2.66;81.44;99512.31;1721693;81;21070;-58
2022/02/12 01:58:16;;;;;;;20.83;11.90;;;;;;;2.65;81.43;99517.20;1722162;81;21494;-58
2022/02/12 02:00:42;;;;;;;19.53;12.47;;;;;;;2.65;81.38;99513.66;1722976;81;21066;-58
2022/02/12 02:03:08;;;;;;;15.03;11.60;;;;;;;2.66;81.31;99510.11;1721223;81;21479;-58
2022/02/12 02:05:36;;;;;;;20.87;12.33;;;;;;;2.65;81.33;99505.69;1718981;81;21054;-58
2022/02/12 02:08:03;;;;;;;18.50;12.70;;;;;;;2.64;81.30;99501.28;1720509;81;21034;-58
2022/02/12 02:10:30;;;;;;;17.73;12.93;;;;;;;2.63;81.28;99508.41;1718063;81;21543;-59
2022/02/12 02:12:57;;;;;;;17.17;13.33;;;;;;;2.62;81.27;99508.43;1720818;81;21018;-59
2022/02/12 02:15:23;;;;;;;23.03;14.93;;;;;;;2.59;81.25;99505.37;1721117;81;21052;-58
2022/02/12 02:17:49;;;;;;;19.93;14.93;;;;;;;2.55;81.12;99506.81;1720880;81;21386;-58
2022/02/12 02:20:16;;;;;;;21.47;14.33;;;;;;;2.46;81.16;99509.64;1720198;81;21086;-58
2022/02/12 02:22:54;;;;;;;17.90;12.10;;;;;;;2.41;81.36;99511.05;1719877;81;21340;-58
2022/02/12 02:25:21;;;;;;;17.97;11.40;;;;;;;2.40;81.42;99522.57;1718861;81;21291;-58
2022/02/12 02:27:48;;;;;;;13.60;9.80;;;;;;;2.41;81.45;99516.80;1719283;81;21150;-61
2022/02/12 02:30:17;;;;;;;12.53;8.63;;;;;;;2.40;81.47;99525.67;1641361;84;21102;-61
2022/02/12 02:32:43;;;;;;;10.07;8.83;;;;;;;2.39;81.41;99540.73;1719753;81;21054;-58
2022/02/12 02:35:11;;;;;;;11.37;9.37;;;;;;;2.33;81.40;99546.17;1720665;81;21070;-58
2022/02/12 02:37:38;;;;;;;14.90;10.63;;;;;;;2.31;81.62;99541.78;1722341;81;20947;-58
2022/02/12 02:40:18;;;;;;;18.93;13.07;;;;;;;2.30;81.75;99554.67;1720418;81;21502;-57
2022/02/12 02:42:47;;;;;;;17.40;12.13;;;;;;;2.26;81.71;99549.40;1721192;81;21069;-58
2022/02/12 02:45:13;;;;;;;17.17;13.03;;;;;;;2.16;81.72;99542.49;1719849;81;21105;-58
2022/02/12 02:47:40;;;;;;;18.40;13.00;;;;;;;2.09;81.90;99552.80;1727422;80;21065;-58
2022/02/12 03:04:03;;;;;;;7.83;7.03;;;;;;;1.92;82.68;99586.72;1859949;75;26437;-59
2022/02/12 03:06:30;;;;;;;7.73;6.83;;;;;;;1.79;82.74;99593.98;1842637;76;21072;-59
2022/02/12 03:08:57;;;;;;;6.60;5.80;;;;;;;1.71;82.96;99613.13;1845286;75;21091;-59
2022/02/12 03:11:28;;;;;;;4.90;3.40;;;;;;;1.65;83.12;99620.30;1845310;76;20917;-59
2022/02/12 03:13:55;;;;;;;3.17;2.87;;;;;;;1.59;83.46;99628.36;1845976;75;20929;-59
2022/02/12 03:16:21;;;;;;;2.43;2.23;;;;;;;1.52;83.55;99638.19;1848558;76;20843;-59
2022/02/12 03:18:48;;;;;;;2.90;2.50;;;;;;;1.49;83.76;99642.20;1844347;75;20969;-59
2022/02/12 03:21:14;;;;;;;3.07;2.77;;;;;;;1.47;83.97;99643.98;1846087;76;21111;-59
2022/02/12 03:23:42;;;;;;;2.50;1.70;;;;;;;1.46;84.08;99650.18;1844870;76;20879;-59
2022/02/12 03:26:09;;;;;;;3.47;1.70;;;;;;;1.45;84.26;99656.38;1843492;75;20910;-59
2022/02/12 03:28:36;;;;;;;2.37;1.43;;;;;;;1.43;84.16;99663.06;1844970;76;20953;-59
2022/02/12 03:31:03;;;;;;;1.20;1.00;;;;;;;1.41;84.37;99679.44;1842940;76;20941;-59
2022/02/12 03:33:29;;;;;;;1.20;1.10;;;;;;;1.37;84.45;99686.10;1843755;76;21067;-59
2022/02/12 03:35:55;;;;;;;1.00;0.73;;;;;;;1.33;84.65;99687.05;1846939;76;20854;-59
2022/02/12 03:38:26;;;;;;;0.90;0.70;;;;;;;1.30;84.66;99696.36;1845182;76;20883;-59
2022/02/12 03:41:00;;;;;;;0.60;0.50;;;;;;;1.28;84.81;99705.66;1809908;77;21308;-59
2022/02/12 03:43:27;;;;;;;;;;;;;;;1.26;84.85;99716.75;1783475;79;20938;-58
2022/02/12 03:45:54;;;;;;;0.30;0.20;;;;;;;1.22;85.20;99707.06;1777483;78;21071;-59
2022/02/12 03:48:22;;;;;;;0.40;0.20;;;;;;;1.16;85.37;99720.84;1779302;78;21276;-59
2022/02/12 03:50:48;;;;;;;0.63;0.20;;;;;;;1.11;85.66;99720.88;1779909;79;21471;-59
2022/02/12 03:53:14;;;;;;;0.10;0.10;;;;;;;1.07;85.88;99736.39;1811383;77;21357;-58
2022/02/12 03:55:41;;;;;;;0.27;0.17;;;;;;;1.04;86.39;99745.69;1807815;77;21308;-59
2022/02/12 03:58:10;;;;;;;0.37;0.23;;;;;;;1.02;86.63;99756.78;1780333;78;21153;-59
2022/02/12 04:00:38;;;;;;;0.30;0.20;;;;;;;1.02;86.72;99762.93;1754125;80;20931;-59
2022/02/12 04:03:04;;;;;;;0.30;0.20;;;;;;;1.04;86.83;99780.15;1784113;78;20859;-59
2022/02/12 04:05:31;;;;;;;0.20;0.20;;;;;;;1.05;86.74;99794.72;1787909;78;20893;-59
2022/02/12 04:07:58;;;;;;;0.60;0.20;;;;;;;1.08;86.72;99800.45;1781655;78;21000;-59
2022/02/12 04:10:25;;;;;;;0.30;0.20;;;;;;;1.10;86.47;99810.16;1790934;78;21096;-59
2022/02/12 04:12:54;;;;;;;0.30;0.20;;;;;;;1.12;86.46;99814.09;1789661;78;21072;-59
2022/02/12 04:15:21;;;;;;;0.20;0.20;;;;;;;1.13;86.55;99821.16;1785543;78;21120;-60
2022/02/12 04:17:48;;;;;;;0.30;0.20;;;;;;;1.16;86.47;99821.14;1789852;78;21075;-59
2022/02/12 04:20:17;;;;;;;0.60;0.30;;;;;;;1.18;86.44;99827.31;1751195;80;20891;-59
2022/02/12 04:22:44;;;;;;;0.50;0.40;;;;;;;1.21;86.44;99835.66;1782554;78;21162;-59
2022/02/12 04:25:14;;;;;;;0.30;0.20;;;;;;;1.23;86.44;99844.05;1754379;80;21083;-60
2022/02/12 04:27:41;;;;;;;1.00;0.30;;;;;;;1.26;86.47;99853.76;1779791;78;21332;-60
2022/02/12 04:30:08;;;;;;;0.43;0.20;;;;;;;1.29;86.42;99858.56;1738981;80;22363;-60
2022/02/12 04:32:36;;;;;;;1.23;0.40;;;;;;;1.30;86.31;99870.05;1752334;80;21426;-59
2022/02/12 04:35:03;;;;;;;0.53;0.20;;;;;;;1.29;86.27;99874.48;1781638;78;21617;-59
2022/02/12 04:37:31;;;;;;;0.40;0.30;;;;;;;1.31;86.20;99878.45;1755560;79;21698;-60
2022/02/12 04:40:00;;;;;;;0.33;0.20;;;;;;;1.33;86.21;99882.86;1757950;79;21040;-60
2022/02/12 04:42:27;;;;;;;0.20;0.20;;;;;;;1.36;86.21;99885.45;1755781;79;21597;-59
2022/02/12 04:44:53;;;;;;;0.20;0.10;;;;;;;1.37;85.96;99888.99;1756164;79;21407;-60
2022/02/12 04:47:21;;;;;;;0.30;0.20;;;;;;;1.40;85.97;99895.16;1752407;79;21008;-59
2022/02/12 04:49:49;;;;;;;0.23;0.20;;;;;;;1.44;85.89;99907.96;1757443;79;22251;-60
2022/02/12 04:52:17;;;;;;;0.43;0.20;;;;;;;1.47;85.87;99908.80;1755204;79;22288;-59
2022/02/12 04:54:43;;;;;;;0.30;0.20;;;;;;;1.51;85.79;99922.92;1758331;79;21056;-60
2022/02/12 04:57:09;;;;;;;1.03;0.20;;;;;;;1.50;85.67;99925.14;1755558;79;21024;-60
2022/02/12 04:59:36;;;;;;;0.63;0.13;;;;;;;1.49;85.50;99930.01;1759509;79;21436;-59
2022/02/12 05:02:03;;;;;;;0.30;0.10;;;;;;;1.44;85.41;99935.38;1783964;78;21551;-59
2022/02/12 05:04:32;;;;;;;0.30;0.20;;;;;;;1.41;85.37;99949.09;1743728;79;21043;-60
2022/02/12 05:06:58;;;;;;;0.20;0.20;;;;;;;1.40;85.39;99952.63;1737761;81;21104;-60
2022/02/12 05:09:26;;;;;;;0.30;0.20;;;;;;;1.38;85.43;99955.73;1734608;81;21131;-59
2022/02/12 05:11:54;;;;;;;0.30;0.20;;;;;;;1.38;85.46;99960.59;1740797;81;21297;-59
2022/02/12 05:14:20;;;;;;;0.30;0.30;;;;;;;1.38;85.40;99968.55;1737598;81;20875;-59
2022/02/12 05:16:46;;;;;;;0.40;0.27;;;;;;;1.38;85.34;99972.98;1738521;81;21017;-60
2022/02/12 05:19:13;;;;;;;0.27;0.20;;;;;;;1.37;85.36;99977.40;1739134;81;21374;-59
2022/02/12 05:21:40;;;;;;;0.30;0.20;;;;;;;1.42;85.41;99976.94;1741943;81;20973;-60
2022/02/12 05:24:07;;;;;;;0.40;0.20;;;;;;;1.44;85.38;99985.77;1739694;81;21785;-59
2022/02/12 05:26:33;;;;;;;0.60;0.30;;;;;;;1.44;85.35;99991.08;1740161;81;20973;-59
2022/02/12 05:28:59;;;;;;;0.63;0.27;;;;;;;1.46;85.26;100002.97;1737763;81;21072;-58
2022/02/12 05:31:25;;;;;;;0.30;0.20;;;;;;;1.43;85.17;100005.23;1736615;81;21120;-59
2022/02/12 05:33:52;;;;;;;0.13;0.13;;;;;;;1.40;85.12;100010.55;1737008;81;21719;-59
2022/02/12 05:36:19;;;;;;;0.30;0.20;;;;;;;1.40;85.18;100017.62;1735998;81;21092;-59
2022/02/12 05:38:45;;;;;;;0.30;0.20;;;;;;;1.40;85.23;100018.50;1734793;81;21127;-60
2022/02/12 05:41:14;;;;;;;0.30;0.30;;;;;;;1.41;85.17;100030.87;1736439;81;21061;-60
2022/02/12 05:43:41;;;;;;;0.10;0.10;;;;;;;1.44;85.27;100033.52;1737012;81;20896;-60
2022/02/12 05:46:08;;;;;;;0.30;0.20;;;;;;;1.47;85.26;100040.11;1737788;81;21012;-61
2022/02/12 05:48:34;;;;;;;0.40;0.10;;;;;;;1.53;85.21;100048.48;1737642;81;21198;-60
2022/02/12 05:51:01;;;;;;;0.30;0.20;;;;;;;1.58;85.15;100052.42;1735545;81;21065;-60
2022/02/12 05:53:27;;;;;;;0.30;0.20;;;;;;;1.57;84.94;100057.29;1738084;81;21033;-60
2022/02/12 05:55:54;;;;;;;1.13;0.20;;;;;;;1.53;84.87;100055.97;1734818;81;21092;-61
2022/02/12 05:58:20;;;;;;;1.00;0.10;;;;;;;1.53;84.91;100064.85;1739575;81;21578;-60
2022/02/12 06:00:48;;;;;;;0.20;0.10;;;;;;;1.50;84.84;100075.91;1741551;81;22085;-60
2022/02/12 06:03:14;;;;;;;0.20;0.10;;;;;;;1.48;84.88;100075.03;1745490;79;20886;-61
2022/02/12 06:05:41;;;;;;;0.20;0.10;;;;;;;1.49;84.89;100079.45;1769388;79;21111;-60
2022/02/12 06:08:09;;;;;;;0.30;0.10;;;;;;;1.50;84.93;100087.84;1769248;79;21051;-60
2022/02/12 06:10:36;;;;;;;1.50;0.10;;;;;;;1.50;84.82;100091.83;1769764;79;21066;-59
2022/02/12 06:13:02;;;;;;;0.20;0.10;;;;;;;1.52;84.93;100093.15;1772797;79;21182;-59
2022/02/12 06:15:35;;;;;;;0.40;0.20;;;;;;;1.56;84.92;100098.85;1769092;79;21048;-59
2022/02/12 06:18:00;;;;;;;0.40;0.20;;;;;;;1.57;84.87;100109.02;1768439;79;21572;-59
2022/02/12 06:20:27;;;;;;;0.20;0.10;;;;;;;1.59;84.83;100108.58;1770915;79;21474;-59
2022/02/12 06:22:54;;;;;;;1.37;0.20;;;;;;;1.58;84.81;100109.02;1767175;79;21084;-59
2022/02/12 06:25:20;;;;;;;0.43;0.17;;;;;;;1.58;84.75;100114.77;1771976;79;21118;-58
2022/02/12 06:27:46;;;;;;;0.90;0.90;;;;;;;1.59;84.71;100118.75;1787125;78;21439;-59
2022/02/12 06:30:12;;;;;;;0.40;0.20;;;;;;;1.59;84.73;100125.83;1786617;78;21025;-59
2022/02/12 06:32:40;;;;;;;0.90;0.30;;;;;;;1.60;84.75;100128.47;1747469;80;21431;-58
2022/02/12 06:35:07;;;;;;;0.40;0.30;;;;;;;1.64;84.78;100138.61;1784637;78;21087;-58
2022/02/12 06:37:34;;;;;;;0.87;0.20;;;;;;;1.67;84.75;100141.25;1787381;78;21147;-57
2022/02/12 06:40:00;;;;;;;0.40;0.30;;;;;;;1.70;84.68;100144.75;1787188;78;20903;-59
2022/02/12 06:42:27;;;;;;;0.70;0.33;;;;;;;1.74;84.69;100146.50;1789680;78;20945;-61
2022/02/12 06:44:53;;;;;;;0.50;0.30;;;;;;;1.75;84.57;100148.27;1769461;80;20963;-58
2022/02/12 06:47:19;;;;;;;0.47;0.30;;;;;;;1.77;84.54;100156.23;1753922;80;20945;-58
2022/02/12 06:49:46;;;;;;;1.27;0.60;;;;;;;1.78;84.48;100162.86;1756300;80;21782;-59
2022/02/12 06:52:12;;;;;;;0.67;0.40;;;;;;;1.78;84.41;100165.96;1767086;79;20925;-59
2022/02/12 06:54:40;;;;;;;0.40;0.40;;;;;;;1.79;84.30;100165.04;1764364;79;20917;-59
2022/02/12 06:57:06;;;;;;;1.83;0.30;;;;;;;1.78;84.22;100168.61;1768325;79;21357;-59
2022/02/12 06:59:35;;;;;;;0.40;0.30;;;;;;;1.81;84.30;100178.75;1771842;79;21454;-59
2022/02/12 07:02:01;;;;;;;0.30;0.30;;;;;;;1.86;84.29;100188.03;1766843;79;21103;-59
2022/02/12 07:04:30;;;;;;;0.40;0.33;;;;;;;1.88;84.22;100191.08;1787831;78;20914;-59
2022/02/12 07:06:56;;;;;;;0.70;0.30;;;;;;;1.95;84.14;100202.58;1787020;78;21907;-59
2022/02/12 07:09:22;;;;;;;0.43;0.30;;;;;;;1.99;84.10;100206.95;1755927;78;21570;-59
2022/02/12 07:11:49;;;;;;;0.30;0.30;;;;;;;2.02;84.02;100209.60;1784849;78;21367;-59
2022/02/12 07:14:15;;;;;;;0.50;0.40;;;;;;;2.04;83.91;100213.58;1761670;80;21063;-59
2022/02/12 07:16:42;;;;;;;0.30;0.30;;;;;;;2.03;83.74;100220.66;1787660;78;20978;-60
2022/02/12 07:19:08;;;;;;;0.60;0.30;;;;;;;1.98;83.62;100222.45;1786745;78;20958;-60
2022/02/12 07:21:35;;;;;;;0.30;0.20;;;;;;;1.95;83.48;100231.78;1787130;78;21131;-58
2022/02/12 07:24:01;;;;;;;1.07;0.20;;;;;;;1.92;83.59;100236.20;1760839;80;21058;-58
2022/02/12 07:26:29;;;;;;;0.40;0.30;;;;;;;1.91;83.68;100240.63;1756462;80;21020;-58
2022/02/12 07:28:57;;;;;;;0.30;0.20;;;;;;;1.93;83.68;100248.16;1766401;79;21018;-60
2022/02/12 07:31:24;;;;;;;0.37;0.20;;;;;;;1.97;83.71;100254.31;1785602;78;21041;-60
2022/02/12 07:33:50;;;;;;;0.33;0.20;;;;;;;1.98;83.54;100249.00;1766039;79;22402;-59
2022/02/12 07:36:16;;;;;;;0.40;0.30;;;;;;;1.98;83.48;100262.27;1763287;79;21604;-59
2022/02/12 07:38:44;;;;;;;0.60;0.37;;;;;;;1.97;83.40;100271.13;1764149;79;21466;-60
2022/02/12 07:41:16;;;;;;;0.50;0.37;;;;;;;1.94;83.41;100272.48;1765602;79;22239;-60
2022/02/12 07:43:39;;;;;;;0.70;0.30;;;;;;;1.93;83.33;100276.03;1764817;79;21189;-60
2022/02/12 07:46:05;;;;;;;0.50;0.30;;;;;;;1.86;83.17;100279.16;1763218;79;21076;-59
2022/02/12 07:48:32;;;;;;;0.40;0.30;;;;;;;1.81;83.08;100289.34;1766676;79;21103;-59
2022/02/12 07:50:59;;;;;;;0.63;0.30;;;;;;;1.77;83.21;100296.46;1766271;79;21102;-59
2022/02/12 07:53:25;;;;;;;0.73;0.30;;;;;;;1.75;83.20;100294.69;1765571;79;21073;-59
2022/02/12 07:55:51;;;;;;;0.87;0.30;;;;;;;1.75;83.33;100296.91;1769177;79;21100;-60
2022/02/12 07:58:19;;;;;;;1.47;0.37;;;;;;;1.76;83.38;100303.09;1766315;79;21083;-60
2022/02/12 08:00:47;;;;;;;0.70;0.40;;;;;;;1.79;83.49;100305.72;1767775;79;21032;-60
2022/02/12 08:03:14;;;;;;;0.80;0.30;;;;;;;1.82;83.40;100306.59;1768136;79;21157;-59
2022/02/12 08:05:41;;;;;;;0.83;0.40;;;;;;;1.84;83.32;100314.56;1737942;80;21478;-59
2022/02/12 08:08:07;;;;;;;0.80;0.50;;;;;;;1.83;83.30;100319.42;1740051;80;21431;-59
2022/02/12 08:13:18;;;;;;;1.15;0.50;;;;;;;1.86;83.27;100328.72;1733837;80;22120;-59
2022/02/12 08:15:44;;;;;;;1.07;0.40;;;;;;;1.86;83.21;100332.70;1738202;80;21102;-61
2022/02/12 08:18:10;;;;;;;1.27;0.50;;;;;;;1.86;83.28;100328.28;1735650;80;21033;-59
2022/02/12 08:20:37;;;;;;;1.17;0.43;;;;;;;1.87;83.35;100328.69;1738593;80;21055;-60
2022/02/12 08:23:04;;;;;;;1.67;0.40;;;;;;;1.91;83.39;100332.22;1739111;80;21091;-59
2022/02/12 08:25:30;;;;;;;0.67;0.40;;;;;;;1.93;83.41;100335.77;1736173;80;20909;-59
2022/02/12 08:27:56;;;;;;;1.97;0.50;;;;;;;1.97;83.42;100341.48;1738422;80;21539;-59
2022/02/12 08:30:23;;;;;;;1.23;0.40;;;;;;;2.01;83.03;100349.00;1741923;80;21081;-59
2022/02/12 08:32:50;;;;;;;1.43;0.60;;;;;;;2.00;82.87;100346.79;1740638;80;21013;-60
2022/02/12 08:35:16;;;;;;;3.27;1.23;;;;;;;1.96;82.67;100349.48;1737610;82;21055;-60
2022/02/12 08:37:44;;;;;;;1.63;0.60;;;;;;;1.92;82.81;100356.56;1738418;82;21085;-61
2022/02/12 08:40:14;;;;;;;1.57;0.60;;;;;;;1.87;82.40;100363.20;1733656;80;21044;-59
2022/02/12 08:42:41;;;;;;;0.67;0.53;;;;;;;1.81;82.31;100378.27;1732500;80;21076;-60
2022/02/12 08:45:08;;;;;;;2.93;0.50;;;;;;;1.80;82.59;100382.69;1737083;80;21080;-59
2022/02/12 08:47:36;;;;;;;3.83;0.80;;;;;;;1.82;82.69;100382.69;1736431;80;21046;-58
2022/02/12 08:50:04;;;;;;;3.83;0.50;;;;;;;1.86;82.49;100393.76;1738501;80;21084;-59
2022/02/12 08:52:31;;;;;;;1.20;0.50;;;;;;;1.90;82.52;100400.81;1737217;80;21183;-59
2022/02/12 08:54:57;;;;;;;2.50;0.50;;;;;;;1.96;82.37;100406.56;1742467;80;21045;-59
2022/02/12 08:57:23;;;;;;;2.50;0.60;;;;;;;1.98;82.24;100403.44;1740015;80;21541;-59
2022/02/12 08:59:50;;;;;;;2.33;0.80;;;;;;;1.98;82.21;100414.94;1736700;80;21772;-57
2022/02/12 09:02:16;;;;;;;1.77;0.70;;;;;;;1.96;82.23;100420.69;1738897;80;21434;-59
2022/02/12 09:04:43;;;;;;;1.27;0.60;;;;;;;1.95;82.25;100428.69;1739235;80;22102;-59
2022/02/12 09:07:10;;;;;;;4.10;0.70;;;;;;;1.94;82.20;100435.77;1733842;80;21048;-60
2022/02/12 09:09:36;;;;;;;2.60;0.50;;;;;;;1.94;82.26;100433.55;1739450;80;21541;-58
2022/02/12 09:12:03;;;;;;;2.97;0.50;;;;;;;1.96;82.18;100428.66;1734501;80;21087;-59
2022/02/12 09:14:30;;;;;;;0.93;0.40;;;;;;;2.01;82.31;100440.61;1730166;81;21041;-58
2022/02/12 09:16:56;;;;;;;1.13;0.50;;;;;;;2.07;82.10;100440.58;1731649;80;21149;-58
2022/02/12 09:19:22;;;;;;;2.70;0.60;;;;;;;2.09;81.91;100450.77;1728732;80;21646;-58
2022/02/12 09:21:49;;;;;;;2.90;0.50;;;;;;;2.10;81.83;100456.52;1728212;81;21048;-60
2022/02/12 09:24:15;;;;;;;2.17;0.60;;;;;;;2.12;81.89;100453.42;1727361;81;21086;-60
2022/02/12 09:26:41;;;;;;;4.63;0.50;;;;;;;2.15;81.78;100458.70;1726935;80;21056;-59
2022/02/12 09:29:09;;;;;;;2.93;0.67;;;;;;;2.16;81.60;100458.70;1729166;80;21015;-59
2022/02/12 09:31:36;;;;;;;3.13;0.60;;;;;;;2.19;81.64;100464.46;1729759;80;21015;-60
2022/02/12 09:34:03;;;;;;;1.90;0.87;;;;;;;2.24;81.64;100467.53;1734733;81;21035;-60
2022/02/12 09:36:29;;;;;;;5.83;0.63;;;;;;;2.34;81.72;100467.50;1735265;81;21051;-59
2022/02/12 09:38:55;;;;;;;1.50;0.50;;;;;;;2.44;81.42;100467.91;1735069;80;21923;-59
2022/02/12 09:41:27;;;;;;;1.37;0.53;;;;;;;2.54;81.44;100470.98;1736004;80;21003;-59
2022/02/12 09:43:54;;;;;;;1.67;0.60;;;;;;;2.63;80.97;100474.92;1737035;80;21113;-59
2022/02/12 09:46:38;;;;;;;1.80;0.60;;;;;;;2.66;80.90;100481.09;1734751;80;21566;-59
2022/02/12 09:49:04;;;;;;;2.37;0.50;;;;;;;2.69;80.77;100477.98;1737550;80;21001;-59
2022/02/12 09:51:32;;;;;;;2.23;0.60;;;;;;;2.70;80.54;100488.62;1741261;80;20921;-59
2022/02/12 09:53:58;;;;;;;1.40;0.40;;;;;;;2.68;80.40;100489.06;1738228;81;21213;-59
2022/02/12 09:56:25;;;;;;;1.63;0.50;;;;;;;2.65;80.21;100486.41;1735740;81;20917;-59
2022/02/12 09:58:51;;;;;;;1.67;0.40;;;;;;;2.65;80.26;100484.63;1727756;81;20942;-59
2022/02/12 10:01:19;;;;;;;4.23;0.60;;;;;;;2.71;80.24;100497.03;1771935;79;20972;-59
2022/02/12 10:03:46;;;;;;;2.93;0.53;;;;;;;2.74;80.12;100497.00;1771244;79;21295;-60
2022/02/12 10:06:14;;;;;;;1.10;0.50;;;;;;;2.77;79.90;100497.00;1786615;78;20886;-58
2022/02/12 10:09:01;;;;;;;4.63;0.80;;;;;;;2.75;79.70;100498.77;1781693;78;20935;-59
2022/02/12 10:11:29;;;;;;;4.03;0.50;;;;;;;2.73;79.62;100508.96;1757960;80;20902;-59
2022/02/12 10:14:08;;;;;;;1.90;0.40;;;;;;;2.73;79.69;100513.84;1720883;79;21017;-59
2022/02/12 10:16:56;;;;;;;4.20;0.40;;;;;;;2.74;79.37;100526.69;1764092;79;21491;-59
2022/02/12 10:19:35;;;;;;;2.40;0.50;;;;;;;2.71;78.81;100535.58;1762767;79;21143;-58
2022/02/12 10:22:07;;;;;;;3.43;0.57;;;;;;;2.68;78.86;100535.58;1766101;79;21412;-58
2022/02/12 10:25:00;;;;;;;1.75;0.55;;;;;;;2.67;78.61;100540.45;1766066;79;21033;-58
2022/02/12 10:27:26;;;;;;;1.63;0.50;;;;;;;2.64;78.64;100536.02;1761482;79;21107;-58
2022/02/12 10:29:54;;;;;;;2.87;0.50;;;;;;;2.61;78.40;100548.02;1788571;78;21066;-62
2022/02/12 10:32:22;;;;;;;1.53;0.50;;;;;;;2.61;78.46;100563.08;1762030;80;21128;-60
2022/02/12 10:34:50;;;;;;;1.13;0.20;;;;;;;2.63;77.94;100556.88;1780305;78;21059;-62
2022/02/12 10:37:20;;;;;;;2.30;0.40;;;;;;;2.61;77.20;100568.39;1745778;80;21483;-61
2022/02/12 10:39:54;;;;;;;2.63;0.37;;;;;;;2.62;77.14;100568.39;1780893;78;21106;-59
2022/02/12 10:42:22;;;;;;;3.20;0.37;;;;;;;2.63;76.77;100570.61;1775469;78;21566;-58
2022/02/12 10:44:49;;;;;;;2.73;0.37;;;;;;;2.63;75.79;100573.27;1767926;79;23157;-58
2022/02/12 10:47:16;;;;;;;0.90;0.33;;;;;;;2.61;75.49;100574.59;1777198;78;21025;-58
2022/02/12 10:49:43;;;;;;;1.80;0.40;;;;;;;2.56;75.32;100565.73;1754691;80;21080;-59
2022/02/12 10:52:09;;;;;;;4.33;0.50;;;;;;;2.55;75.46;100576.40;1783676;78;21042;-59
2022/02/12 10:54:45;;;;;;;0.93;0.40;;;;;;;2.57;75.69;100579.91;1762679;79;21107;-62
2022/02/12 10:57:12;;;;;;;1.03;0.30;;;;;;;2.60;75.78;100587.45;1762647;79;21785;-60
2022/02/12 10:59:42;;;;;;;2.47;0.30;;;;;;;2.64;75.32;100585.64;1781089;78;21005;-60
2022/02/12 11:02:07;;;;;;;0.80;0.30;;;;;;;2.65;75.01;100586.97;1752428;80;21097;-61
2022/02/12 11:04:36;;;;;;;0.90;0.30;;;;;;;2.68;74.83;100592.73;1757208;79;21061;-60
2022/02/12 11:07:03;;;;;;;6.80;0.50;;;;;;;2.69;73.99;100586.97;1771663;79;21037;-61
2022/02/12 11:09:30;;;;;;;0.97;0.40;;;;;;;2.70;74.07;100593.63;1776389;79;21161;-60
2022/02/12 11:12:01;;;;;;;1.60;0.50;;;;;;;2.73;73.98;100590.93;1774914;79;21003;-58
2022/02/12 11:14:32;;;;;;;3.30;0.50;;;;;;;2.77;73.99;100602.02;1772363;79;21042;-60
2022/02/12 11:16:57;;;;;;;1.43;0.43;;;;;;;2.83;73.71;100604.64;1773049;79;20962;-58
2022/02/12 11:19:24;;;;;;;1.47;0.50;;;;;;;2.88;73.87;100607.30;1741402;79;21056;-61
2022/02/12 11:21:51;;;;;;;2.33;0.50;;;;;;;2.93;73.73;100609.04;1771168;79;21084;-58
2022/02/12 11:24:19;;;;;;;0.93;0.50;;;;;;;2.94;73.53;100609.48;1777976;79;21619;-58
2022/02/12 11:26:47;;;;;;;4.20;0.60;;;;;;;2.91;73.18;100604.17;1732682;79;21029;-59
2022/02/12 11:29:36;;;;;;;2.23;0.60;;;;;;;2.87;73.48;100610.41;1766548;79;21115;-59
2022/02/12 11:32:14;;;;;;;2.43;0.67;;;;;;;2.87;73.71;100613.06;1763203;79;21108;-61
2022/02/12 11:35:10;;;;;;;2.20;0.57;;;;;;;2.89;73.93;100622.37;1737960;80;21794;-60
2022/02/12 11:37:45;;;;;;;7.33;2.13;;;;;;;2.94;74.06;100619.23;1769177;79;21000;-59
2022/02/12 11:40:24;;;;;;;2.00;0.60;;;;;;;2.97;73.49;100628.10;1757466;79;21144;-59
2022/02/12 11:43:03;;;;;;;2.80;0.50;;;;;;;2.99;73.28;100638.27;1759765;79;21540;-58
2022/02/12 11:45:40;;;;;;;2.07;0.50;;;;;;;2.96;72.80;100636.97;1755029;79;21150;-61
2022/02/12 11:48:29;;;;;;;2.70;0.57;;;;;;;2.93;72.61;100634.30;1758044;79;21825;-58
2022/02/12 11:51:06;;;;;;;5.47;0.60;;;;;;;2.89;72.75;100639.17;1758686;79;21041;-59
2022/02/12 11:53:46;;;;;;;2.80;0.50;;;;;;;2.87;72.62;100645.41;1756693;79;21016;-60